Time;durP1;ratioP1;P1;durP2;ratioP2;P2;SDS_P1;SDS_P2;PMS_P1;PMS_P2;Temp;Humidity;BMP_temperature;BMP_pressure;BME280_temperature;BME280_humidity;BME280_pressure;Samples;Min_cycle;Max_cycle;Signal;HPM_P1;HPM_P2
2022/10/14 00:02:26;;;;;;;;;;;;;;;;;;5112914;28;1922;-50
2022/10/14 00:04:53;;;;;;;;;;;;;;;;;;5112998;28;1084;-51
2022/10/14 00:07:21;;;;;;;;;;;;;;;;;;5112892;28;1083;-49
2022/10/14 00:09:48;;;;;;;;;;;;;;;;;;5112829;28;907;-46
2022/10/14 00:12:15;;;;;;;;;;;;;;;;;;5112827;28;1198;-51
2022/10/14 00:14:43;;;;;;;;;;;;;;;;;;5112821;28;903;-51
2022/10/14 00:17:10;;;;;;;;;;;;;;;;;;5112850;28;1030;-53
2022/10/14 00:19:37;;;;;;;;;;;;;;;;;;5113053;28;896;-51
2022/10/14 00:22:04;;;;;;;;;;;;;;;;;;5112949;28;1975;-52
2022/10/14 00:24:32;;;;;;;;;;;;;;;;;;5111259;28;1369;-51
2022/10/14 00:27:00;;;;;;;;;;;;;;;;;;5112266;28;1350;-53
2022/10/14 00:29:27;;;;;;;;;;;;;;;;;;5112425;28;1141;-48
2022/10/14 00:31:55;;;;;;;;;;;;;;;;;;5112301;28;903;-49
2022/10/14 00:34:22;;;;;;;;;;;;;;;;;;5096277;28;1278;-54
2022/10/14 00:36:52;;;;;;;;;;;;;;;;;;5091949;28;1197;-52
2022/10/14 00:39:19;;;;;;;;;;;;;;;;;;5092023;28;944;-52
2022/10/14 00:41:47;;;;;;;;;;;;;;;;;;5090539;28;1973;-53
2022/10/14 00:44:14;;;;;;;;;;;;;;;;;;5091706;28;1039;-48
2022/10/14 00:46:42;;;;;;;;;;;;;;;;;;5090408;28;1235;-51
2022/10/14 00:49:12;;;;;;;;;;;;;;;;;;5091681;28;1014;-55
2022/10/14 00:51:41;;;;;;;;;;;;;;;;;;5091879;28;1198;-51
2022/10/14 00:54:11;;;;;;;;;;;;;;;;;;5091816;28;939;-49
2022/10/14 00:56:38;;;;;;;;;;;;;;;;;;5090136;28;1391;-53
2022/10/14 00:59:09;;;;;;;;;;;;;;;;;;5091410;28;1129;-49
2022/10/14 01:01:36;;;;;;;;;;;;;;;;;;5090114;28;1966;-53
2022/10/14 01:04:03;;;;;;;;;;;;;;;;;;5091525;28;1120;-52
2022/10/14 01:06:36;;;;;;;;;;;;;;;;;;5091216;28;1200;-52
2022/10/14 01:09:12;;;;;;;;;;;;;;;;;;5091512;28;1083;-47
2022/10/14 01:11:59;;;;;;;;;;;;;;;;;;5090220;28;1324;-44
2022/10/14 01:14:58;;;;;;;;;;;;;;;;;;5089839;28;1367;-50
2022/10/14 01:17:38;;;;;;;;;;;;;;;;;;5089940;28;1113;-53
2022/10/14 01:20:05;;;;;;;;;;;;;;;;;;5091340;28;1136;-51
2022/10/14 01:22:37;;;;;;;;;;;;;;;;;;5091274;28;1910;-54
2022/10/14 01:25:28;;;;;;;;;;;;;;;;;;5089857;28;2569;-52
2022/10/14 01:28:02;;;;;;;;;;;;;;;;;;5091218;28;1293;-51
2022/10/14 01:30:32;;;;;;;;;;;;;;;;;;5089878;28;1425;-51
2022/10/14 01:33:07;;;;;;;;;;;;;;;;;;5089823;28;1270;-49
2022/10/14 01:35:52;;;;;;;;;;;;;;;;;;5091065;28;921;-45
2022/10/14 01:38:26;;;;;;;;;;;;;;;;;;5091144;28;1033;-54
2022/10/14 01:41:00;;;;;;;;;;;;;;;;;;5091261;28;1151;-46
2022/10/14 01:43:28;;;;;;;;;;;;;;;;;;5089857;28;1915;-53
2022/10/14 01:45:56;;;;;;;;;;;;;;;;;;5091059;28;986;-50
2022/10/14 01:48:26;;;;;;;;;;;;;;;;;;5091164;28;1355;-52
2022/10/14 01:50:56;;;;;;;;;;;;;;;;;;5090915;28;1083;-51
2022/10/14 01:53:30;;;;;;;;;;;;;;;;;;5090875;28;1179;-53
2022/10/14 01:55:58;;;;;;;;;;;;;;;;;;5123742;28;1296;-43
2022/10/14 01:58:27;;;;;;;;;;;;;;;;;;5089568;28;1331;-50
2022/10/14 02:00:55;;;;;;;;;;;;;;;;;;5089510;28;2234;-49
2022/10/14 02:03:22;;;;;;;;;;;;;;;;;;5090972;28;1914;-46
2022/10/14 02:05:56;;;;;;;;;;;;;;;;;;5089463;28;1683;-48
2022/10/14 02:08:46;;;;;;;;;;;;;;;;;;5091069;28;1182;-45
2022/10/14 02:11:15;;;;;;;;;;;;;;;;;;5084707;28;1469;-49
2022/10/14 02:13:44;;;;;;;;;;;;;;;;;;5093490;28;1396;-44
2022/10/14 02:16:26;;;;;;;;;;;;;;;;;;5110078;28;1217;-54
2022/10/14 02:18:53;;;;;;;;;;;;;;;;;;5093581;28;1736;-53
2022/10/14 02:21:23;;;;;;;;;;;;;;;;;;5094778;28;989;-53
2022/10/14 02:23:56;;;;;;;;;;;;;;;;;;5094296;28;2003;-48
2022/10/14 02:26:25;;;;;;;;;;;;;;;;;;5093215;28;2394;-48
2022/10/14 02:28:54;;;;;;;;;;;;;;;;;;5094451;28;1070;-49
2022/10/14 02:31:21;;;;;;;;;;;;;;;;;;5094557;28;908;-53
2022/10/14 02:33:51;;;;;;;;;;;;;;;;;;5105638;28;1131;-50
2022/10/14 02:36:20;;;;;;;;;;;;;;;;;;5113303;28;1417;-53
2022/10/14 02:38:47;;;;;;;;;;;;;;;;;;5113537;28;1284;-53
2022/10/14 02:41:17;;;;;;;;;;;;;;;;;;5113420;28;1051;-47
2022/10/14 02:43:45;;;;;;;;;;;;;;;;;;5113422;28;1910;-49
2022/10/14 02:46:12;;;;;;;;;;;;;;;;;;5114488;27;943;-50
2022/10/14 02:48:39;;;;;;;;;;;;;;;;;;5114338;28;1143;-43
2022/10/14 02:51:06;;;;;;;;;;;;;;;;;;5113174;28;1225;-54
2022/10/14 02:53:36;;;;;;;;;;;;;;;;;;5113136;28;1056;-49
2022/10/14 02:56:04;;;;;;;;;;;;;;;;;;5113046;28;1225;-52
2022/10/14 02:58:33;;;;;;;;;;;;;;;;;;5112930;28;1222;-45
2022/10/14 03:01:00;;;;;;;;;;;;;;;;;;5113630;28;1730;-51
2022/10/14 03:03:28;;;;;;;;;;;;;;;;;;5112899;28;1920;-41
2022/10/14 03:05:56;;;;;;;;;;;;;;;;;;5112729;28;1293;-49
2022/10/14 03:08:25;;;;;;;;;;;;;;;;;;5112750;28;1198;-46
2022/10/14 03:10:54;;;;;;;;;;;;;;;;;;5112634;28;1532;-41
2022/10/14 03:13:22;;;;;;;;;;;;;;;;;;5114039;28;1189;-49
2022/10/14 03:15:49;;;;;;;;;;;;;;;;;;5114045;28;919;-41
2022/10/14 03:18:17;;;;;;;;;;;;;;;;;;5112725;28;1435;-43
2022/10/14 03:20:47;;;;;;;;;;;;;;;;;;5111701;28;1596;-46
2022/10/14 03:23:21;;;;;;;;;;;;;;;;;;5112654;28;2026;-50
2022/10/14 03:25:51;;;;;;;;;;;;;;;;;;5111491;28;2250;-50
2022/10/14 03:28:29;;;;;;;;;;;;;;;;;;5112215;28;1304;-46
2022/10/14 03:31:05;;;;;;;;;;;;;;;;;;5112351;28;1532;-50
2022/10/14 03:34:01;;;;;;;;;;;;;;;;;;5086052;28;1423;-46
2022/10/14 03:36:30;;;;;;;;;;;;;;;;;;5091188;28;1422;-44
2022/10/14 03:38:57;;;;;;;;;;;;;;;;;;5093021;28;1306;-53
2022/10/14 03:41:33;;;;;;;;;;;;;;;;;;5091899;28;1202;-52
2022/10/14 03:44:00;;;;;;;;;;;;;;;;;;5091384;28;2075;-53
2022/10/14 03:46:28;;;;;;;;;;;;;;;;;;5093078;28;942;-50
2022/10/14 03:48:56;;;;;;;;;;;;;;;;;;5091375;28;1285;-47
2022/10/14 03:51:23;;;;;;;;;;;;;;;;;;5091591;28;1429;-52
2022/10/14 03:53:58;;;;;;;;;;;;;;;;;;5091524;28;1896;-53
2022/10/14 03:56:28;;;;;;;;;;;;;;;;;;5091405;28;1226;-52
2022/10/14 03:58:55;;;;;;;;;;;;;;;;;;5091714;28;1413;-51
2022/10/14 04:01:23;;;;;;;;;;;;;;;;;;5092509;28;1195;-48
2022/10/14 04:04:07;;;;;;;;;;;;;;;;;;5091296;28;1984;-48
2022/10/14 04:06:36;;;;;;;;;;;;;;;;;;5091364;28;1329;-43
2022/10/14 04:09:05;;;;;;;;;;;;;;;;;;5091236;28;2427;-47
2022/10/14 04:11:36;;;;;;;;;;;;;;;;;;5091270;28;1668;-46
2022/10/14 04:14:07;;;;;;;;;;;;;;;;;;5090977;28;1210;-51
2022/10/14 04:16:42;;;;;;;;;;;;;;;;;;5091017;28;1327;-52
2022/10/14 04:19:15;;;;;;;;;;;;;;;;;;5091671;28;1491;-49
2022/10/14 04:21:42;;;;;;;;;;;;;;;;;;5092269;28;1312;-48
2022/10/14 04:24:10;;;;;;;;;;;;;;;;;;5090618;28;1909;-52
2022/10/14 04:26:44;;;;;;;;;;;;;;;;;;5090731;28;1427;-49
2022/10/14 04:29:20;;;;;;;;;;;;;;;;;;5090979;28;1483;-50
2022/10/14 04:31:53;;;;;;;;;;;;;;;;;;5091784;28;1385;-50
2022/10/14 04:34:21;;;;;;;;;;;;;;;;;;5107247;28;1361;-47
2022/10/14 04:36:53;;;;;;;;;;;;;;;;;;5111312;28;1510;-46
2022/10/14 04:39:41;;;;;;;;;;;;;;;;;;5112201;28;1097;-51
2022/10/14 04:42:08;;;;;;;;;;;;;;;;;;5110498;28;1209;-50
2022/10/14 04:44:35;;;;;;;;;;;;;;;;;;5110638;28;1918;-48
2022/10/14 04:47:03;;;;;;;;;;;;;;;;;;5110799;28;1356;-47
2022/10/14 04:49:31;;;;;;;;;;;;;;;;;;5110713;28;1250;-53
2022/10/14 04:52:06;;;;;;;;;;;;;;;;;;5111033;28;1406;-47
2022/10/14 04:54:58;;;;;;;;;;;;;;;;;;5106842;28;1261;-49
2022/10/14 04:57:34;;;;;;;;;;;;;;;;;;5106324;28;2142;-54
2022/10/14 05:00:03;;;;;;;;;;;;;;;;;;5090410;28;1250;-50
2022/10/14 05:02:46;;;;;;;;;;;;;;;;;;5089841;28;2135;-48
2022/10/14 05:05:13;;;;;;;;;;;;;;;;;;5091434;28;1268;-53
2022/10/14 05:07:42;;;;;;;;;;;;;;;;;;5090014;28;1460;-40
2022/10/14 05:10:23;;;;;;;;;;;;;;;;;;5090238;28;1198;-40
2022/10/14 05:12:53;;;;;;;;;;;;;;;;;;5090334;28;1366;-41
2022/10/14 05:15:21;;;;;;;;;;;;;;;;;;5090516;28;1533;-41
2022/10/14 05:17:59;;;;;;;;;;;;;;;;;;5089955;28;1234;-40
2022/10/14 05:20:45;;;;;;;;;;;;;;;;;;5089910;28;1280;-47
2022/10/14 05:23:13;;;;;;;;;;;;;;;;;;5089938;28;1914;-40
2022/10/14 05:25:40;;;;;;;;;;;;;;;;;;5089885;28;1058;-40
2022/10/14 05:28:08;;;;;;;;;;;;;;;;;;5089884;28;1316;-41
2022/10/14 05:30:38;;;;;;;;;;;;;;;;;;5090095;28;1856;-40
2022/10/14 05:33:09;;;;;;;;;;;;;;;;;;5091171;28;1625;-41
2022/10/14 05:35:38;;;;;;;;;;;;;;;;;;5089977;28;1202;-40
2022/10/14 05:38:24;;;;;;;;;;;;;;;;;;5090073;28;1365;-53
2022/10/14 05:40:52;;;;;;;;;;;;;;;;;;5089806;28;1368;-40
2022/10/14 05:43:20;;;;;;;;;;;;;;;;;;5090800;28;1957;-41
2022/10/14 05:45:47;;;;;;;;;;;;;;;;;;5093521;28;1261;-41
2022/10/14 05:48:16;;;;;;;;;;;;;;;;;;5093510;28;1370;-41
2022/10/14 05:50:43;;;;;;;;;;;;;;;;;;5094795;28;1164;-40
2022/10/14 05:53:14;;;;;;;;;;;;;;;;;;5093626;28;1496;-41
2022/10/14 05:55:46;;;;;;;;;;;;;;;;;;5094003;28;1224;-42
2022/10/14 05:58:13;;;;;;;;;;;;;;;;;;5095297;28;950;-41
2022/10/14 06:00:43;;;;;;;;;;;;;;;;;;5093761;28;1205;-40
2022/10/14 06:03:14;;;;;;;;;;;;;;;;;;5093372;28;1969;-41
2022/10/14 06:05:41;;;;;;;;;;;;;;;;;;5094913;28;1165;-41
2022/10/14 06:08:08;;;;;;;;;;;;;;;;;;5095044;28;1054;-41
2022/10/14 06:10:37;;;;;;;;;;;;;;;;;;5093514;28;1214;-41
2022/10/14 06:13:04;;;;;;;;;;;;;;;;;;5094766;28;1050;-41
2022/10/14 06:15:35;;;;;;;;;;;;;;;;;;5093520;28;1224;-41
2022/10/14 06:18:02;;;;;;;;;;;;;;;;;;5094803;28;1193;-41
2022/10/14 06:20:31;;;;;;;;;;;;;;;;;;5093576;28;1490;-41
2022/10/14 06:22:58;;;;;;;;;;;;;;;;;;5094510;28;1902;-40
2022/10/14 06:25:25;;;;;;;;;;;;;;;;;;5094728;28;1230;-44
2022/10/14 06:27:53;;;;;;;;;;;;;;;;;;5094558;28;1204;-40
2022/10/14 06:30:20;;;;;;;;;;;;;;;;;;5094494;28;1030;-41
2022/10/14 06:32:47;;;;;;;;;;;;;;;;;;5094726;28;1115;-45
2022/10/14 06:35:14;;;;;;;;;;;;;;;;;;5094357;28;1287;-41
2022/10/14 06:37:43;;;;;;;;;;;;;;;;;;5094393;28;1091;-54
2022/10/14 06:40:10;;;;;;;;;;;;;;;;;;5094469;28;1331;-52
2022/10/14 06:42:38;;;;;;;;;;;;;;;;;;5094380;28;1154;-41
2022/10/14 06:45:05;;;;;;;;;;;;;;;;;;5094215;28;1963;-41
2022/10/14 06:47:32;;;;;;;;;;;;;;;;;;5094139;28;1448;-41
2022/10/14 06:50:01;;;;;;;;;;;;;;;;;;5093328;28;1012;-41
2022/10/14 06:52:28;;;;;;;;;;;;;;;;;;5094124;28;888;-41
2022/10/14 06:54:55;;;;;;;;;;;;;;;;;;5094352;28;1361;-51
2022/10/14 06:57:22;;;;;;;;;;;;;;;;;;5094046;28;1313;-42
2022/10/14 06:59:49;;;;;;;;;;;;;;;;;;5094060;28;1126;-41
2022/10/14 07:02:17;;;;;;;;;;;;;;;;;;5093757;28;1360;-41
2022/10/14 07:04:44;;;;;;;;;;;;;;;;;;5093547;28;1910;-41
2022/10/14 07:07:11;;;;;;;;;;;;;;;;;;5093550;28;1127;-40
2022/10/14 07:09:38;;;;;;;;;;;;;;;;;;5093929;28;1148;-53
2022/10/14 07:12:05;;;;;;;;;;;;;;;;;;5093771;28;1074;-51
2022/10/14 07:14:32;;;;;;;;;;;;;;;;;;5094046;28;1123;-48
2022/10/14 07:16:59;;;;;;;;;;;;;;;;;;5093906;28;1129;-41
2022/10/14 07:19:26;;;;;;;;;;;;;;;;;;5093438;28;1173;-42
2022/10/14 07:21:56;;;;;;;;;;;;;;;;;;5093774;28;1177;-46
2022/10/14 07:24:23;;;;;;;;;;;;;;;;;;5093375;28;1913;-51
2022/10/14 07:26:50;;;;;;;;;;;;;;;;;;5093160;28;1094;-41
2022/10/14 07:29:17;;;;;;;;;;;;;;;;;;5092370;28;1496;-42
2022/10/14 07:31:45;;;;;;;;;;;;;;;;;;5093255;28;1025;-41
2022/10/14 07:34:12;;;;;;;;;;;;;;;;;;5093158;28;1229;-41
2022/10/14 07:36:39;;;;;;;;;;;;;;;;;;5093253;28;1003;-41
2022/10/14 07:39:06;;;;;;;;;;;;;;;;;;5093311;28;1467;-48
2022/10/14 07:41:33;;;;;;;;;;;;;;;;;;5093551;28;1040;-41
2022/10/14 07:44:04;;;;;;;;;;;;;;;;;;5093012;28;1917;-41
2022/10/14 07:46:32;;;;;;;;;;;;;;;;;;5092992;28;1105;-41
2022/10/14 07:49:07;;;;;;;;;;;;;;;;;;5093205;28;995;-41
2022/10/14 07:51:36;;;;;;;;;;;;;;;;;;5093274;28;1311;-42
2022/10/14 07:54:08;;;;;;;;;;;;;;;;;;5093350;28;1060;-50
2022/10/14 07:56:36;;;;;;;;;;;;;;;;;;5092989;28;1234;-40
2022/10/14 07:59:04;;;;;;;;;;;;;;;;;;5093110;28;981;-41
2022/10/14 08:01:34;;;;;;;;;;;;;;;;;;5092826;28;1196;-51
2022/10/14 08:04:01;;;;;;;;;;;;;;;;;;5092947;28;1987;-48
2022/10/14 08:06:28;;;;;;;;;;;;;;;;;;5092273;28;1132;-41
2022/10/14 08:08:55;;;;;;;;;;;;;;;;;;5093011;28;1005;-46
2022/10/14 08:11:23;;;;;;;;;;;;;;;;;;5092868;28;1171;-46
2022/10/14 08:13:51;;;;;;;;;;;;;;;;;;5092439;28;1296;-54
2022/10/14 08:16:22;;;;;;;;;;;;;;;;;;5092783;28;904;-48
2022/10/14 08:18:50;;;;;;;;;;;;;;;;;;5092585;28;985;-47
2022/10/14 08:21:17;;;;;;;;;;;;;;;;;;5092707;28;931;-41
2022/10/14 08:23:44;;;;;;;;;;;;;;;;;;5092272;28;1909;-42
2022/10/14 08:26:15;;;;;;;;;;;;;;;;;;5092433;28;992;-54
2022/10/14 08:28:42;;;;;;;;;;;;;;;;;;5092552;28;1051;-53
2022/10/14 08:31:09;;;;;;;;;;;;;;;;;;5092435;28;931;-52
2022/10/14 08:33:36;;;;;;;;;;;;;;;;;;5092441;28;1131;-54
2022/10/14 08:36:04;;;;;;;;;;;;;;;;;;5092211;28;1060;-46
2022/10/14 08:38:31;;;;;;;;;;;;;;;;;;5092057;28;1039;-50
2022/10/14 08:41:14;;;;;;;;;;;;;;;;;;5091822;28;1326;-44
2022/10/14 08:44:11;;;;;;;;;;;;;;;;;;5091904;28;1902;-49
2022/10/14 08:46:42;;;;;;;;;;;;;;;;;;5083320;28;1533;-52
2022/10/14 08:49:25;;;;;;;;;;;;;;;;;;5091666;28;1270;-40
2022/10/14 08:52:00;;;;;;;;;;;;;;;;;;5091832;28;1192;-41
2022/10/14 08:54:36;;;;;;;;;;;;;;;;;;5091864;28;1105;-50
2022/10/14 08:57:04;;;;;;;;;;;;;;;;;;5091917;28;1328;-41
2022/10/14 08:59:36;;;;;;;;;;;;;;;;;;5091824;28;982;-41
2022/10/14 09:02:12;;;;;;;;;;;;;;;;;;5091640;28;1175;-41
2022/10/14 09:04:39;;;;;;;;;;;;;;;;;;5091733;28;1981;-41
2022/10/14 09:07:09;;;;;;;;;;;;;;;;;;5091695;28;1247;-45
2022/10/14 09:09:42;;;;;;;;;;;;;;;;;;5091747;28;1314;-41
2022/10/14 09:12:13;;;;;;;;;;;;;;;;;;5091585;28;1077;-49
2022/10/14 09:14:47;;;;;;;;;;;;;;;;;;5090355;28;1049;-41
2022/10/14 09:17:21;;;;;;;;;;;;;;;;;;5091649;28;951;-40
2022/10/14 09:19:55;;;;;;;;;;;;;;;;;;5090577;28;1857;-47
2022/10/14 09:22:23;;;;;;;;;;;;;;;;;;5091231;28;2090;-45
2022/10/14 09:24:50;;;;;;;;;;;;;;;;;;5091108;28;1953;-42
2022/10/14 09:27:21;;;;;;;;;;;;;;;;;;5091640;28;2082;-51
2022/10/14 09:29:49;;;;;;;;;;;;;;;;;;5091566;28;1642;-55
2022/10/14 09:32:34;;;;;;;;;;;;;;;;;;5091388;28;1996;-49
2022/10/14 09:35:02;;;;;;;;;;;;;;;;;;5091291;28;1448;-53
2022/10/14 09:37:30;;;;;;;;;;;;;;;;;;5091359;28;1655;-54
2022/10/14 09:40:23;;;;;;;;;;;;;;;;;;5091222;28;2071;-50
2022/10/14 09:43:00;;;;;;;;;;;;;;;;;;5081625;28;1664;-52
2022/10/14 09:45:46;;;;;;;;;;;;;;;;;;5090695;28;2088;-49
2022/10/14 09:48:19;;;;;;;;;;;;;;;;;;5091390;28;1449;-50
2022/10/14 09:50:52;;;;;;;;;;;;;;;;;;5091282;28;1763;-53
2022/10/14 09:53:33;;;;;;;;;;;;;;;;;;5091141;28;1098;-54
2022/10/14 09:56:02;;;;;;;;;;;;;;;;;;5091362;28;1618;-51
2022/10/14 09:58:43;;;;;;;;;;;;;;;;;;5090991;28;1545;-51
2022/10/14 10:01:15;;;;;;;;;;;;;;;;;;5091054;28;1921;-53
2022/10/14 10:03:42;;;;;;;;;;;;;;;;;;5091157;28;1679;-53
2022/10/14 10:06:11;;;;;;;;;;;;;;;;;;5090893;28;1895;-53
2022/10/14 10:08:59;;;;;;;;;;;;;;;;;;5091310;28;1769;-51
2022/10/14 10:11:34;;;;;;;;;;;;;;;;;;5090774;28;2121;-48
2022/10/14 10:14:16;;;;;;;;;;;;;;;;;;5090728;28;1860;-51
2022/10/14 10:16:43;;;;;;;;;;;;;;;;;;5090993;28;2191;-54
2022/10/14 10:19:27;;;;;;;;;;;;;;;;;;5091144;28;1693;-53
2022/10/14 10:22:15;;;;;;;;;;;;;;;;;;5091076;28;1844;-52
2022/10/14 10:24:43;;;;;;;;;;;;;;;;;;5090867;28;1910;-54
2022/10/14 10:27:25;;;;;;;;;;;;;;;;;;5090669;28;2119;-53
2022/10/14 10:29:56;;;;;;;;;;;;;;;;;;5091897;28;1961;-50
2022/10/14 10:32:29;;;;;;;;;;;;;;;;;;5094352;28;2103;-53
2022/10/14 10:34:56;;;;;;;;;;;;;;;;;;5094802;28;1509;-52
2022/10/14 10:37:40;;;;;;;;;;;;;;;;;;5093968;28;1937;-52
2022/10/14 10:40:25;;;;;;;;;;;;;;;;;;5094578;28;1988;-51
2022/10/14 10:43:18;;;;;;;;;;;;;;;;;;5094485;28;1954;-48
2022/10/14 10:46:04;;;;;;;;;;;;;;;;;;5089647;28;2147;-54
2022/10/14 10:48:34;;;;;;;;;;;;;;;;;;5094355;28;2105;-51
2022/10/14 10:51:08;;;;;;;;;;;;;;;;;;5094306;28;2179;-49
2022/10/14 10:53:50;;;;;;;;;;;;;;;;;;5094141;28;1673;-54
2022/10/14 10:56:37;;;;;;;;;;;;;;;;;;5093606;28;1453;-52
2022/10/14 10:59:22;;;;;;;;;;;;;;;;;;5094197;28;2175;-55
2022/10/14 11:02:08;;;;;;;;;;;;;;;;;;5093963;28;2247;-55
2022/10/14 11:04:41;;;;;;;;;;;;;;;;;;5093848;28;1943;-53
2022/10/14 11:13:12;;;;;;;;;;;;;;;;;;5093741;28;1813;-52
2022/10/14 11:15:51;;;;;;;;;;;;;;;;;;5088304;28;1538;-50
2022/10/14 11:18:25;;;;;;;;;;;;;;;;;;5093619;28;1981;-52
2022/10/14 11:21:10;;;;;;;;;;;;;;;;;;5093694;28;1636;-52
2022/10/14 11:23:55;;;;;;;;;;;;;;;;;;5093645;28;2083;-49
2022/10/14 11:26:32;;;;;;;;;;;;;;;;;;5093463;28;1902;-47
2022/10/14 11:29:06;;;;;;;;;;;;;;;;;;5093684;28;2110;-51
2022/10/14 11:31:49;;;;;;;;;;;;;;;;;;5093313;28;1959;-49
2022/10/14 11:34:27;;;;;;;;;;;;;;;;;;5093545;28;1601;-53
2022/10/14 11:37:03;;;;;;;;;;;;;;;;;;5093580;28;2020;-49
2022/10/14 11:39:48;;;;;;;;;;;;;;;;;;5093269;28;1968;-53
2022/10/14 11:42:33;;;;;;;;;;;;;;;;;;5092305;28;2163;-52
2022/10/14 11:45:09;;;;;;;;;;;;;;;;;;5125482;27;1901;-48
2022/10/14 11:47:38;;;;;;;;;;;;;;;;;;5093125;28;2177;-54
2022/10/14 11:50:11;;;;;;;;;;;;;;;;;;5093185;28;2101;-54
2022/10/14 11:52:41;;;;;;;;;;;;;;;;;;5093156;28;1709;-49
2022/10/14 11:55:12;;;;;;;;;;;;;;;;;;5092864;28;2027;-51
2022/10/14 11:57:46;;;;;;;;;;;;;;;;;;5093058;28;2150;-52
2022/10/14 12:00:13;;;;;;;;;;;;;;;;;;5092735;28;1708;-50
2022/10/14 12:02:55;;;;;;;;;;;;;;;;;;5092585;28;1699;-49
2022/10/14 12:05:40;;;;;;;;;;;;;;;;;;5092570;28;2298;-50
2022/10/14 12:08:10;;;;;;;;;;;;;;;;;;5092490;28;2187;-52
2022/10/14 12:10:42;;;;;;;;;;;;;;;;;;5093065;28;1958;-50
2022/10/14 12:13:13;;;;;;;;;;;;;;;;;;5092317;28;1601;-49
2022/10/14 12:15:43;;;;;;;;;;;;;;;;;;5092796;28;1835;-50
2022/10/14 12:18:13;;;;;;;;;;;;;;;;;;5092648;28;1805;-47
2022/10/14 12:20:47;;;;;;;;;;;;;;;;;;5092107;28;2020;-54
2022/10/14 12:23:42;;;;;;;;;;;;;;;;;;5091922;28;1402;-50
2022/10/14 12:26:14;;;;;;;;;;;;;;;;;;5091069;28;2167;-42
2022/10/14 12:28:42;;;;;;;;;;;;;;;;;;5092388;28;2023;-53
2022/10/14 12:31:32;;;;;;;;;;;;;;;;;;5090847;28;2267;-69
2022/10/14 12:34:14;;;;;;;;;;;;;;;;;;5104823;28;1628;-52
2022/10/14 12:36:42;;;;;;;;;;;;;;;;;;5112360;28;1602;-53
2022/10/14 12:39:18;;;;;;;;;;;;;;;;;;5112524;28;2284;-54
2022/10/14 12:41:52;;;;;;;;;;;;;;;;;;5112561;28;1699;-49
2022/10/14 12:44:21;;;;;;;;;;;;;;;;;;5112572;28;1866;-48
2022/10/14 12:46:50;;;;;;;;;;;;;;;;;;5112160;28;1914;-50
2022/10/14 12:49:22;;;;;;;;;;;;;;;;;;5112554;28;2266;-50
2022/10/14 12:51:54;;;;;;;;;;;;;;;;;;5112359;28;1813;-51
2022/10/14 12:54:24;;;;;;;;;;;;;;;;;;5112125;28;2090;-49
2022/10/14 12:57:05;;;;;;;;;;;;;;;;;;5103513;28;2249;-49
2022/10/14 12:59:37;;;;;;;;;;;;;;;;;;5091456;28;1799;-49
2022/10/14 13:02:17;;;;;;;;;;;;;;;;;;5091662;28;1994;-49
2022/10/14 13:04:52;;;;;;;;;;;;;;;;;;5091595;28;1938;-51
2022/10/14 13:07:25;;;;;;;;;;;;;;;;;;5091471;28;1943;-51
2022/10/14 13:10:26;;;;;;;;;;;;;;;;;;5091544;28;1816;-48
2022/10/14 13:12:53;;;;;;;;;;;;;;;;;;5091451;28;2001;-53
2022/10/14 13:15:33;;;;;;;;;;;;;;;;;;5091792;28;2109;-48
2022/10/14 13:18:19;;;;;;;;;;;;;;;;;;5090993;28;1704;-50
2022/10/14 13:20:50;;;;;;;;;;;;;;;;;;5091065;28;1957;-51
2022/10/14 13:23:29;;;;;;;;;;;;;;;;;;5091570;28;1973;-51
2022/10/14 13:26:16;;;;;;;;;;;;;;;;;;5091153;28;2106;-51
2022/10/14 13:28:46;;;;;;;;;;;;;;;;;;5091407;28;1633;-48
2022/10/14 13:31:36;;;;;;;;;;;;;;;;;;5091233;28;1999;-48
2022/10/14 13:34:11;;;;;;;;;;;;;;;;;;5104569;28;1575;-48
2022/10/14 13:37:01;;;;;;;;;;;;;;;;;;5111355;28;1775;-47
2022/10/14 13:39:30;;;;;;;;;;;;;;;;;;5100864;28;1742;-48
2022/10/14 13:41:58;;;;;;;;;;;;;;;;;;5111479;28;2125;-46
2022/10/14 13:44:25;;;;;;;;;;;;;;;;;;5112102;28;1709;-51
2022/10/14 13:46:54;;;;;;;;;;;;;;;;;;5111755;28;2031;-53
2022/10/14 13:49:36;;;;;;;;;;;;;;;;;;5111466;28;1510;-48
2022/10/14 13:52:05;;;;;;;;;;;;;;;;;;5111544;28;1787;-47
2022/10/14 13:54:32;;;;;;;;;;;;;;;;;;5111385;28;1717;-46
2022/10/14 13:57:08;;;;;;;;;;;;;;;;;;5111044;28;1990;-50
2022/10/14 13:59:55;;;;;;;;;;;;;;;;;;5111425;28;1628;-53
2022/10/14 14:02:42;;;;;;;;;;;;;;;;;;5111243;28;1556;-51
2022/10/14 14:05:16;;;;;;;;;;;;;;;;;;5112821;28;1911;-49
2022/10/14 14:07:44;;;;;;;;;;;;;;;;;;5115572;27;2175;-48
2022/10/14 14:10:31;;;;;;;;;;;;;;;;;;5115419;28;1788;-53
2022/10/14 14:13:03;;;;;;;;;;;;;;;;;;5115484;28;1433;-54
2022/10/14 14:15:30;;;;;;;;;;;;;;;;;;5114863;28;1823;-48
2022/10/14 14:17:57;;;;;;;;;;;;;;;;;;5115589;28;1659;-53
2022/10/14 14:20:27;;;;;;;;;;;;;;;;;;5115249;27;1997;-51
2022/10/14 14:22:56;;;;;;;;;;;;;;;;;;5115506;28;1921;-50
2022/10/14 14:25:27;;;;;;;;;;;;;;;;;;5115135;28;1905;-54
2022/10/14 14:28:11;;;;;;;;;;;;;;;;;;5114961;28;1944;-51
2022/10/14 14:30:41;;;;;;;;;;;;;;;;;;5115016;28;2409;-48
2022/10/14 14:33:13;;;;;;;;;;;;;;;;;;5109252;28;1734;-51
2022/10/14 14:35:42;;;;;;;;;;;;;;;;;;5094449;28;1840;-49
2022/10/14 14:38:29;;;;;;;;;;;;;;;;;;5094490;28;1689;-52
2022/10/14 14:41:01;;;;;;;;;;;;;;;;;;5094627;28;2034;-52
2022/10/14 14:43:28;;;;;;;;;;;;;;;;;;5094511;28;1683;-49
2022/10/14 14:46:01;;;;;;;;;;;;;;;;;;5094307;28;1958;-50
2022/10/14 14:48:29;;;;;;;;;;;;;;;;;;5094377;28;1806;-53
2022/10/14 14:50:57;;;;;;;;;;;;;;;;;;5093863;28;2152;-56
2022/10/14 14:53:28;;;;;;;;;;;;;;;;;;5094148;28;1798;-48
2022/10/14 14:55:55;;;;;;;;;;;;;;;;;;5093699;28;1829;-51
2022/10/14 14:58:23;;;;;;;;;;;;;;;;;;5094120;28;1913;-49
2022/10/14 15:00:50;;;;;;;;;;;;;;;;;;5094203;28;1579;-50
2022/10/14 15:03:18;;;;;;;;;;;;;;;;;;5093912;28;1280;-50
2022/10/14 15:05:49;;;;;;;;;;;;;;;;;;5093939;28;2150;-51
2022/10/14 15:08:19;;;;;;;;;;;;;;;;;;5093536;28;1908;-51
2022/10/14 15:10:48;;;;;;;;;;;;;;;;;;5093897;28;2120;-52
2022/10/14 15:13:47;;;;;;;;;;;;;;;;;;5093968;28;1996;-48
2022/10/14 15:16:34;;;;;;;;;;;;;;;;;;5069349;28;2073;-48
2022/10/14 15:19:32;;;;;;;;;;;;;;;;;;5093675;28;2068;-52
2022/10/14 15:22:08;;;;;;;;;;;;;;;;;;5086104;28;2513;-52
2022/10/14 15:24:54;;;;;;;;;;;;;;;;;;5093668;28;2127;-48
2022/10/14 15:27:29;;;;;;;;;;;;;;;;;;5093272;28;2017;-53
2022/10/14 15:30:15;;;;;;;;;;;;;;;;;;5093517;28;1998;-49
2022/10/14 15:32:42;;;;;;;;;;;;;;;;;;5093387;28;1501;-53
2022/10/14 15:35:12;;;;;;;;;;;;;;;;;;5092997;28;1792;-47
2022/10/14 15:37:39;;;;;;;;;;;;;;;;;;5093240;28;1784;-51
2022/10/14 15:40:16;;;;;;;;;;;;;;;;;;5093378;28;1258;-54
2022/10/14 15:42:43;;;;;;;;;;;;;;;;;;5093152;28;1480;-54
2022/10/14 15:45:11;;;;;;;;;;;;;;;;;;5093358;28;1725;-51
2022/10/14 15:47:38;;;;;;;;;;;;;;;;;;5093242;28;2263;-54
2022/10/14 15:50:07;;;;;;;;;;;;;;;;;;5092898;28;1884;-42
2022/10/14 15:52:34;;;;;;;;;;;;;;;;;;5093130;28;1803;-51
2022/10/14 15:55:13;;;;;;;;;;;;;;;;;;5093302;28;1839;-52
2022/10/14 15:57:40;;;;;;;;;;;;;;;;;;5092923;28;1743;-46
2022/10/14 16:00:07;;;;;;;;;;;;;;;;;;5093020;28;1946;-53
2022/10/14 16:02:37;;;;;;;;;;;;;;;;;;5092562;28;1789;-48
2022/10/14 16:05:05;;;;;;;;;;;;;;;;;;5092898;28;1851;-49
2022/10/14 16:07:45;;;;;;;;;;;;;;;;;;5092672;28;2345;-48
2022/10/14 16:10:15;;;;;;;;;;;;;;;;;;5092422;28;1844;-53
2022/10/14 16:12:42;;;;;;;;;;;;;;;;;;5092790;28;1633;-50
2022/10/14 16:15:30;;;;;;;;;;;;;;;;;;5090940;28;2154;-50
2022/10/14 16:17:58;;;;;;;;;;;;;;;;;;5092664;28;2273;-54
2022/10/14 16:20:25;;;;;;;;;;;;;;;;;;5092568;28;2025;-51
2022/10/14 16:22:52;;;;;;;;;;;;;;;;;;5092474;28;1746;-51
2022/10/14 16:25:28;;;;;;;;;;;;;;;;;;5092234;28;1891;-48
2022/10/14 16:27:56;;;;;;;;;;;;;;;;;;5091694;28;1788;-48
2022/10/14 16:30:23;;;;;;;;;;;;;;;;;;5092293;28;2081;-53
2022/10/14 16:32:51;;;;;;;;;;;;;;;;;;5095365;28;2210;-49
2022/10/14 16:35:18;;;;;;;;;;;;;;;;;;5113028;28;1616;-48
2022/10/14 16:37:47;;;;;;;;;;;;;;;;;;5112383;27;1791;-51
2022/10/14 16:40:14;;;;;;;;;;;;;;;;;;5112326;28;1671;-51
2022/10/14 16:42:41;;;;;;;;;;;;;;;;;;5112383;28;1792;-49
2022/10/14 16:45:09;;;;;;;;;;;;;;;;;;5112794;28;1987;-45
2022/10/14 16:47:36;;;;;;;;;;;;;;;;;;5112645;28;2487;-49
2022/10/14 16:50:04;;;;;;;;;;;;;;;;;;5112486;28;2237;-50
2022/10/14 16:53:39;;;;;;;;;;;;;;;;;;5110870;28;1661;-51
2022/10/14 16:55:21;;;;;;;;;;;;;;;;;;5111981;28;2021;-50
2022/10/14 16:57:48;;;;;;;;;;;;;;;;;;5112095;28;1526;-50
2022/10/14 17:00:16;;;;;;;;;;;;;;;;;;5112207;28;1990;-47
2022/10/14 17:02:44;;;;;;;;;;;;;;;;;;5112130;28;1811;-53
2022/10/14 17:05:11;;;;;;;;;;;;;;;;;;5110312;28;1428;-47
2022/10/14 17:07:39;;;;;;;;;;;;;;;;;;5111608;28;1968;-50
2022/10/14 17:10:06;;;;;;;;;;;;;;;;;;5111795;28;1345;-46
2022/10/14 17:12:33;;;;;;;;;;;;;;;;;;5112103;28;2140;-52
2022/10/14 17:15:01;;;;;;;;;;;;;;;;;;5111820;28;1442;-53
2022/10/14 17:17:31;;;;;;;;;;;;;;;;;;5111654;28;2231;-49
2022/10/14 17:19:58;;;;;;;;;;;;;;;;;;5111759;28;1881;-50
2022/10/14 17:22:25;;;;;;;;;;;;;;;;;;5111983;28;1902;-50
2022/10/14 17:24:53;;;;;;;;;;;;;;;;;;5111708;28;1665;-50
2022/10/14 17:27:23;;;;;;;;;;;;;;;;;;5111725;28;1921;-51
2022/10/14 17:29:50;;;;;;;;;;;;;;;;;;5111549;28;2196;-52
2022/10/14 17:32:18;;;;;;;;;;;;;;;;;;5111504;28;1698;-51
2022/10/14 17:34:45;;;;;;;;;;;;;;;;;;5092374;28;1842;-50
2022/10/14 17:37:13;;;;;;;;;;;;;;;;;;5090955;28;1825;-49
2022/10/14 17:39:41;;;;;;;;;;;;;;;;;;5090561;28;1686;-50
2022/10/14 17:42:08;;;;;;;;;;;;;;;;;;5090159;28;2115;-51
2022/10/14 17:44:36;;;;;;;;;;;;;;;;;;5091159;28;1606;-54